createdAt,value
2022-08-18T00:01:16.466Z,4.20
2022-08-18T00:03:56.642Z,4.45
2022-08-18T00:06:29.373Z,4.32
2022-08-18T00:08:59.264Z,4.40
2022-08-18T00:11:27.757Z,4.03
2022-08-18T00:13:54.904Z,4.63
2022-08-18T00:16:22.115Z,4.22
2022-08-18T00:18:49.067Z,4.55
2022-08-18T00:21:16.555Z,4.25
2022-08-18T00:23:43.522Z,3.90
2022-08-18T00:26:10.874Z,4.50
2022-08-18T00:28:37.895Z,4.15
2022-08-18T00:31:05.972Z,4.40
2022-08-18T00:33:33.319Z,4.50
2022-08-18T00:36:00.304Z,4.20
2022-08-18T00:38:27.254Z,4.70
2022-08-18T00:40:56.300Z,4.65
2022-08-18T00:43:53.292Z,4.57
2022-08-18T00:46:29.745Z,4.20
2022-08-18T00:48:57.711Z,5.00
2022-08-18T00:51:49.440Z,4.72
2022-08-18T00:54:21.019Z,4.47
2022-08-18T00:56:51.569Z,5.10
2022-08-18T00:59:47.156Z,4.50
2022-08-18T01:02:33.008Z,4.70
2022-08-18T01:05:15.204Z,5.13
2022-08-18T01:07:47.577Z,4.78
2022-08-18T01:10:21.167Z,4.50
2022-08-18T01:12:52.476Z,4.60
2022-08-18T01:15:28.082Z,4.90
2022-08-18T01:18:17.727Z,4.88
2022-08-18T01:21:38.634Z,4.65
2022-08-18T01:24:08.871Z,4.88
2022-08-18T01:26:44.352Z,5.15
2022-08-18T01:29:19.203Z,4.88
2022-08-18T01:31:55.424Z,5.18
2022-08-18T01:34:26.605Z,4.63
2022-08-18T01:36:55.088Z,4.88
2022-08-18T01:40:59.935Z,5.10
2022-08-18T01:42:10.436Z,4.97
2022-08-18T01:44:40.598Z,4.78
2022-08-18T01:47:10.892Z,5.80
2022-08-18T01:49:39.884Z,5.05
2022-08-18T01:52:07.558Z,5.07
2022-08-18T01:54:34.530Z,5.10
2022-08-18T01:57:02.618Z,5.00
2022-08-18T01:59:29.869Z,4.97
2022-08-18T02:02:00.213Z,4.40
2022-08-18T02:04:36.096Z,4.93
2022-08-18T02:07:07.878Z,4.60
2022-08-18T02:09:37.785Z,5.40
2022-08-18T02:12:07.287Z,5.28
2022-08-18T02:14:37.714Z,4.78
2022-08-18T02:17:08.038Z,5.15
2022-08-18T02:19:42.371Z,5.25
2022-08-18T02:22:11.429Z,5.70
2022-08-18T02:24:38.857Z,5.15
2022-08-18T02:27:07.427Z,5.65
2022-08-18T02:29:35.561Z,5.28
2022-08-18T02:32:02.799Z,5.80
2022-08-18T02:34:29.798Z,5.78
2022-08-18T02:36:56.812Z,6.45
2022-08-18T02:39:23.737Z,5.95
2022-08-18T02:41:51.725Z,6.20
2022-08-18T02:44:18.706Z,5.55
2022-08-18T02:46:45.687Z,5.47
2022-08-18T02:49:12.964Z,5.90
2022-08-18T02:51:40.055Z,5.90
2022-08-18T02:54:09.556Z,5.70
2022-08-18T02:56:41.808Z,5.90
2022-08-18T02:59:23.243Z,5.63
2022-08-18T03:01:53.421Z,6.22
2022-08-18T03:04:29.674Z,5.85
2022-08-18T03:07:01.186Z,5.72
2022-08-18T03:09:29.655Z,6.53
2022-08-18T03:11:57.356Z,6.85
2022-08-18T03:14:25.595Z,7.43
2022-08-18T03:16:54.424Z,7.45
2022-08-18T03:19:32.162Z,7.50
2022-08-18T03:22:03.348Z,7.53
2022-08-18T03:24:32.224Z,7.82
2022-08-18T03:27:00.400Z,7.60
2022-08-18T03:29:32.089Z,7.47
2022-08-18T03:32:01.314Z,8.48
2022-08-18T03:34:28.541Z,7.63
2022-08-18T03:36:55.474Z,7.85
2022-08-18T03:39:25.302Z,6.57
2022-08-18T03:41:59.646Z,6.55
2022-08-18T03:44:33.473Z,6.80
2022-08-18T03:49:31.446Z,7.80
2022-08-18T03:52:01.162Z,8.48
2022-08-18T03:54:29.606Z,6.95
2022-08-18T03:56:56.703Z,6.75
2022-08-18T03:59:25.765Z,5.40
2022-08-18T04:01:55.082Z,6.50
2022-08-18T04:04:27.070Z,5.93
2022-08-18T04:07:00.122Z,6.10
2022-08-18T04:09:29.651Z,5.35
2022-08-18T04:11:57.725Z,5.63
2022-08-18T04:14:33.020Z,5.63
2022-08-18T04:17:00.216Z,5.60
2022-08-18T04:19:28.164Z,5.63
2022-08-18T04:21:57.512Z,5.60
2022-08-18T04:24:31.035Z,5.88
2022-08-18T04:27:01.374Z,5.35
2022-08-18T04:29:29.676Z,5.45
2022-08-18T04:31:56.973Z,5.05
2022-08-18T04:34:24.024Z,5.47
2022-08-18T04:36:54.165Z,5.47
2022-08-18T04:39:22.845Z,5.28
2022-08-18T04:41:50.985Z,6.03
2022-08-18T04:44:19.151Z,5.70
2022-08-18T04:46:54.078Z,5.68
2022-08-18T04:49:25.697Z,5.80
2022-08-18T04:52:34.481Z,5.03
2022-08-18T04:55:01.671Z,5.85
2022-08-18T04:57:29.316Z,5.80
2022-08-18T05:00:00.677Z,5.72
2022-08-18T05:02:28.102Z,5.22
2022-08-18T05:04:55.188Z,5.97
2022-08-18T05:07:25.685Z,5.25
2022-08-18T05:09:55.221Z,5.45
2022-08-18T05:12:25.770Z,5.32
2022-08-18T05:14:54.297Z,5.63
2022-08-18T05:17:21.228Z,8.13
2022-08-18T05:19:48.543Z,5.65
2022-08-18T05:22:26.467Z,4.78
2022-08-18T05:24:55.862Z,4.75
2022-08-18T05:27:22.894Z,4.50
2022-08-18T05:29:51.639Z,4.75
2022-08-18T05:32:42.521Z,4.80
2022-08-18T05:35:15.404Z,4.90
2022-08-18T05:38:12.182Z,7.03
2022-08-18T05:40:39.351Z,5.97
2022-08-18T05:43:08.291Z,4.88
2022-08-18T05:45:35.937Z,5.68
2022-08-18T05:48:03.122Z,5.65
2022-08-18T05:50:35.095Z,5.18
2022-08-18T05:53:13.331Z,5.45
2022-08-18T05:56:05.416Z,4.93
2022-08-18T05:58:46.952Z,5.03
2022-08-18T06:01:26.286Z,4.93
2022-08-18T06:04:02.792Z,5.80
2022-08-18T06:06:31.751Z,4.50
2022-08-18T06:09:13.448Z,6.03
2022-08-18T06:11:40.538Z,4.78
2022-08-18T06:14:07.672Z,4.90
2022-08-18T06:16:53.578Z,4.20
2022-08-18T06:19:49.547Z,4.38
2022-08-18T06:22:31.564Z,4.53
2022-08-18T06:25:13.579Z,5.25
2022-08-18T06:28:07.661Z,4.68
2022-08-18T06:30:40.071Z,4.50
2022-08-18T06:33:29.822Z,5.07
2022-08-18T06:36:03.908Z,4.63
2022-08-18T06:38:41.029Z,4.70
2022-08-18T06:41:42.735Z,4.20
2022-08-18T06:44:23.217Z,3.85
2022-08-18T06:46:56.409Z,4.20
2022-08-18T06:49:36.371Z,4.22
2022-08-18T06:52:23.505Z,4.63
2022-08-18T06:54:52.079Z,17.40
2022-08-18T06:57:52.849Z,17.08
2022-08-18T07:00:19.964Z,28.58
2022-08-18T07:02:58.834Z,27.27
2022-08-18T07:05:28.972Z,24.20
2022-08-18T07:08:14.681Z,13.32
2022-08-18T07:10:50.784Z,12.70
2022-08-18T07:13:30.137Z,10.20
2022-08-18T07:16:47.115Z,6.68
2022-08-18T07:19:20.419Z,4.47
2022-08-18T07:22:04.085Z,7.28
2022-08-18T07:24:44.420Z,6.35
2022-08-18T07:27:17.733Z,5.95
2022-08-18T07:30:07.001Z,5.60
2022-08-18T07:32:44.847Z,5.70
2022-08-18T07:35:17.648Z,5.35
2022-08-18T07:37:55.252Z,3.78
2022-08-18T07:40:51.706Z,4.00
2022-08-18T07:43:32.105Z,4.00
2022-08-18T07:46:12.497Z,4.40
2022-08-18T07:48:40.666Z,4.50
2022-08-18T07:51:38.516Z,4.47
2022-08-18T07:54:47.882Z,5.13
2022-08-18T07:57:20.626Z,4.45
2022-08-18T08:00:18.836Z,5.28
2022-08-18T08:03:12.350Z,4.68
2022-08-18T08:05:54.579Z,3.95
2022-08-18T08:08:46.185Z,3.88
2022-08-18T08:11:19.152Z,3.70
2022-08-18T08:14:07.454Z,3.35
2022-08-18T08:16:50.383Z,3.40
2022-08-18T08:19:59.642Z,2.92
2022-08-18T08:23:15.204Z,3.20
2022-08-18T08:26:06.851Z,3.33
2022-08-18T08:28:56.888Z,3.25
2022-08-18T08:31:36.827Z,3.10
2022-08-18T08:34:27.778Z,3.33
2022-08-18T08:37:02.695Z,2.97
2022-08-18T08:40:08.581Z,3.03
2022-08-18T08:43:23.911Z,3.10
2022-08-18T08:46:20.226Z,2.88
2022-08-18T08:48:55.955Z,3.13
2022-08-18T08:51:31.983Z,3.05
2022-08-18T08:54:24.826Z,3.42
2022-08-18T08:59:22.786Z,2.30
2022-08-18T09:02:37.957Z,3.00
2022-08-18T09:05:11.915Z,3.20
2022-08-18T09:08:05.813Z,3.60
2022-08-18T09:11:07.199Z,3.30
2022-08-18T09:13:49.333Z,3.70
2022-08-18T09:16:39.538Z,3.05
2022-08-18T09:19:32.456Z,7.15
2022-08-18T09:22:10.580Z,5.68
2022-08-18T09:24:47.132Z,4.30
2022-08-18T09:27:53.810Z,7.53
2022-08-18T09:30:47.480Z,6.20
2022-08-18T09:33:46.643Z,6.38
2022-08-18T09:36:31.619Z,5.18
2022-08-18T09:39:36.541Z,4.93
2022-08-18T09:42:12.632Z,4.57
2022-08-18T09:44:49.281Z,5.78
2022-08-18T09:47:23.723Z,4.38
2022-08-18T09:53:38.016Z,4.78
2022-08-18T09:56:06.902Z,3.33
2022-08-18T09:58:55.939Z,3.72
2022-08-18T10:01:38.275Z,4.72
2022-08-18T10:04:15.702Z,3.47
2022-08-18T10:06:51.704Z,4.03
2022-08-18T10:09:44.144Z,3.90
2022-08-18T10:12:33.784Z,3.45
2022-08-18T10:15:07.037Z,2.28
2022-08-18T10:17:45.633Z,3.42
2022-08-18T10:20:42.636Z,2.95
2022-08-18T10:23:10.345Z,3.45
2022-08-18T10:25:47.333Z,3.30
2022-08-18T10:29:00.203Z,3.05
2022-08-18T10:31:28.881Z,3.13
2022-08-18T10:34:16.903Z,2.80
2022-08-18T10:37:01.855Z,2.85
2022-08-18T10:39:39.660Z,3.53
2022-08-18T10:42:19.962Z,2.50
2022-08-18T10:44:50.314Z,2.95
2022-08-18T10:50:22.995Z,2.95
2022-08-18T10:53:38.855Z,2.65
2022-08-18T10:56:34.110Z,2.85
2022-08-18T10:59:54.492Z,2.78
2022-08-18T11:02:27.685Z,3.08
2022-08-18T11:04:58.696Z,3.33
2022-08-18T11:07:34.382Z,3.03
2022-08-18T11:10:32.202Z,3.33
2022-08-18T11:13:22.745Z,2.95
2022-08-18T11:16:21.050Z,2.85
2022-08-18T11:19:04.087Z,2.17
2022-08-18T11:21:51.434Z,3.10
2022-08-18T11:24:26.739Z,3.00
2022-08-18T11:26:59.725Z,3.05
2022-08-18T11:29:35.510Z,3.00
2022-08-18T11:32:04.425Z,3.95
2022-08-18T11:34:41.313Z,2.90
2022-08-18T11:37:51.251Z,2.75
2022-08-18T11:43:42.272Z,4.20
2022-08-18T11:46:31.151Z,3.53
2022-08-18T11:49:01.381Z,3.28
2022-08-18T11:51:32.819Z,2.85
2022-08-18T11:54:23.249Z,2.55
2022-08-18T11:56:51.614Z,3.33
2022-08-18T11:59:52.210Z,2.95
2022-08-18T12:02:21.521Z,2.77
2022-08-18T12:04:56.788Z,2.40
2022-08-18T12:07:35.635Z,3.05
2022-08-18T12:10:28.505Z,3.30
2022-08-18T12:15:47.694Z,2.80
2022-08-18T12:18:19.056Z,3.67
2022-08-18T12:20:55.115Z,3.20
2022-08-18T12:23:22.213Z,3.17
2022-08-18T12:25:51.858Z,3.47
2022-08-18T12:28:22.670Z,3.20
2022-08-18T12:30:56.569Z,2.88
2022-08-18T12:33:25.547Z,2.55
2022-08-18T12:36:04.173Z,3.13
2022-08-18T12:38:32.995Z,2.70
2022-08-18T12:41:05.463Z,2.83
2022-08-18T12:43:34.080Z,2.70
2022-08-18T12:46:02.522Z,2.78
2022-08-18T12:48:31.823Z,3.10
2022-08-18T12:51:00.729Z,2.63
2022-08-18T12:56:30.332Z,3.03
2022-08-18T12:59:00.304Z,2.80
2022-08-18T13:01:32.674Z,2.60
2022-08-18T13:06:59.920Z,2.60
2022-08-18T13:09:42.660Z,3.33
2022-08-18T13:12:18.539Z,2.45
2022-08-18T13:14:47.546Z,2.67
2022-08-18T13:17:32.690Z,2.78
2022-08-18T13:20:13.345Z,2.45
2022-08-18T13:22:41.078Z,2.90
2022-08-18T13:25:11.174Z,2.90
2022-08-18T13:27:39.349Z,3.00
2022-08-18T13:30:30.554Z,2.83
2022-08-18T13:33:05.828Z,2.80
2022-08-18T13:35:52.071Z,2.42
2022-08-18T13:38:27.134Z,2.60
2022-08-18T13:40:59.179Z,2.72
2022-08-18T13:43:38.939Z,2.33
2022-08-18T13:46:07.140Z,2.50
2022-08-18T13:48:37.894Z,2.30
2022-08-18T13:51:08.207Z,2.67
2022-08-18T13:53:50.401Z,3.10
2022-08-18T13:56:19.823Z,2.53
2022-08-18T13:58:53.637Z,3.10
2022-08-18T14:01:44.746Z,3.20
2022-08-18T14:04:12.517Z,3.05
2022-08-18T14:06:46.792Z,2.97
2022-08-18T14:09:19.358Z,3.00
2022-08-18T14:11:51.222Z,2.97
2022-08-18T14:14:18.561Z,3.05
2022-08-18T14:16:45.593Z,2.70
2022-08-18T14:19:31.615Z,3.20
2022-08-18T14:22:17.833Z,3.13
2022-08-18T14:25:04.223Z,2.90
2022-08-18T14:27:37.818Z,2.90
2022-08-18T14:30:09.369Z,2.60
2022-08-18T14:32:51.314Z,2.63
2022-08-18T14:36:04.698Z,3.03
2022-08-18T14:38:09.952Z,2.47
2022-08-18T14:40:41.856Z,3.50
2022-08-18T14:43:11.641Z,2.90
2022-08-18T14:45:48.919Z,2.90
2022-08-18T14:48:18.698Z,2.70
2022-08-18T14:50:49.380Z,2.90
2022-08-18T14:55:52.407Z,2.92
2022-08-18T14:58:20.840Z,2.60
2022-08-18T15:00:53.368Z,2.65
2022-08-18T15:03:28.372Z,2.78
2022-08-18T15:06:00.607Z,2.88
2022-08-18T15:08:28.351Z,3.35
2022-08-18T15:10:56.324Z,3.50
2022-08-18T15:13:26.452Z,4.10
2022-08-18T15:16:02.179Z,3.53
2022-08-18T15:18:29.663Z,3.47
2022-08-18T15:21:19.448Z,3.55
2022-08-18T15:24:20.498Z,3.33
2022-08-18T15:26:51.863Z,3.17
2022-08-18T15:29:28.073Z,3.17
2022-08-18T15:32:05.841Z,3.38
2022-08-18T15:34:46.782Z,3.03
2022-08-18T15:37:19.836Z,3.77
2022-08-18T15:39:51.996Z,3.00
2022-08-18T15:42:23.711Z,3.20
2022-08-18T15:44:52.769Z,3.20
2022-08-18T15:47:21.260Z,3.22
2022-08-18T15:49:48.591Z,3.35
2022-08-18T15:52:17.407Z,3.22
2022-08-18T15:54:50.420Z,3.33
2022-08-18T15:57:34.247Z,2.92
2022-08-18T16:00:06.288Z,3.63
2022-08-18T16:02:33.814Z,4.03
2022-08-18T16:05:12.208Z,3.95
2022-08-18T16:07:45.097Z,3.60
2022-08-18T16:10:14.145Z,3.03
2022-08-18T16:12:45.963Z,3.15
2022-08-18T16:15:19.201Z,4.32
2022-08-18T16:17:48.549Z,3.45
2022-08-18T16:20:15.911Z,3.78
2022-08-18T16:22:43.515Z,3.33
2022-08-18T16:25:11.104Z,3.53
2022-08-18T16:27:42.990Z,3.17
2022-08-18T16:30:12.947Z,3.20
2022-08-18T16:32:40.319Z,3.22
2022-08-18T16:35:07.655Z,3.22
2022-08-18T16:37:35.139Z,3.17
2022-08-18T16:40:02.177Z,3.30
2022-08-18T16:42:33.179Z,3.50
2022-08-18T16:45:01.533Z,4.30
2022-08-18T16:47:28.703Z,4.22
2022-08-18T16:49:58.433Z,5.95
2022-08-18T16:52:27.260Z,7.00
2022-08-18T16:54:57.839Z,6.25
2022-08-18T16:57:55.101Z,3.80
2022-08-18T17:00:43.167Z,3.83
2022-08-18T17:03:28.970Z,3.70
2022-08-18T17:06:03.359Z,3.80
2022-08-18T17:08:34.267Z,4.35
2022-08-18T17:11:03.477Z,4.18
2022-08-18T17:13:30.526Z,5.15
2022-08-18T17:15:57.584Z,4.35
2022-08-18T17:18:24.856Z,4.45
2022-08-18T17:20:52.456Z,4.20
2022-08-18T17:23:22.709Z,3.88
2022-08-18T17:25:50.895Z,3.85
2022-08-18T17:28:23.865Z,4.70
2022-08-18T17:30:53.360Z,3.85
2022-08-18T17:33:26.388Z,4.60
2022-08-18T17:35:54.274Z,4.25
2022-08-18T17:38:43.903Z,4.03
2022-08-18T17:41:12.584Z,4.10
2022-08-18T17:46:18.665Z,4.82
2022-08-18T17:48:53.764Z,4.82
2022-08-18T17:51:35.303Z,5.40
2022-08-18T17:54:23.733Z,5.65
2022-08-18T17:56:57.787Z,6.10
2022-08-18T17:59:45.934Z,6.07
2022-08-18T18:02:30.336Z,5.57
2022-08-18T18:05:04.387Z,5.05
2022-08-18T18:07:43.823Z,5.78
2022-08-18T18:10:12.752Z,5.05
2022-08-18T18:12:40.372Z,5.82
2022-08-18T18:15:11.930Z,5.07
2022-08-18T18:17:42.370Z,5.00
2022-08-18T18:20:30.196Z,4.45
2022-08-18T18:23:19.486Z,5.03
2022-08-18T18:25:47.095Z,4.63
2022-08-18T18:28:35.252Z,5.38
2022-08-18T18:31:25.614Z,4.95
2022-08-18T18:34:03.332Z,5.20
2022-08-18T18:36:37.042Z,5.78
2022-08-18T18:39:23.005Z,5.20
2022-08-18T18:42:18.218Z,5.32
2022-08-18T18:44:59.227Z,5.38
2022-08-18T18:48:01.771Z,6.18
2022-08-18T18:53:44.595Z,5.70
2022-08-18T18:56:25.754Z,5.47
2022-08-18T18:59:25.242Z,5.40
2022-08-18T19:02:33.841Z,7.25
2022-08-18T19:05:21.543Z,6.53
2022-08-18T19:08:13.355Z,6.00
2022-08-18T19:11:10.999Z,6.60
2022-08-18T19:13:43.492Z,6.55
2022-08-18T19:16:36.201Z,6.15
2022-08-18T19:19:37.738Z,7.10
2022-08-18T19:22:10.519Z,6.13
2022-08-18T19:24:54.475Z,5.93
2022-08-18T19:27:34.188Z,6.45
2022-08-18T19:30:08.217Z,6.22
2022-08-18T19:32:43.989Z,6.80
2022-08-18T19:35:35.395Z,6.38
2022-08-18T19:38:18.822Z,5.88
2022-08-18T19:40:51.278Z,6.57
2022-08-18T19:43:55.954Z,5.78
2022-08-18T19:46:40.412Z,5.97
2022-08-18T19:49:36.872Z,6.78
2022-08-18T19:52:45.668Z,6.75
2022-08-18T19:55:51.499Z,6.70
2022-08-18T19:58:36.536Z,7.03
2022-08-18T20:01:41.831Z,7.18
2022-08-18T20:04:25.806Z,7.05
2022-08-18T20:07:26.350Z,6.63
2022-08-18T20:10:16.433Z,6.30
2022-08-18T20:13:05.687Z,6.65
2022-08-18T20:15:33.249Z,6.97
2022-08-18T20:18:21.690Z,6.47
2022-08-18T20:21:22.663Z,7.05
2022-08-18T20:24:06.056Z,7.10
2022-08-18T20:26:37.725Z,6.78
2022-08-18T20:29:17.284Z,6.47
2022-08-18T20:31:44.656Z,6.28
2022-08-18T20:34:14.711Z,6.40
2022-08-18T20:36:44.064Z,6.25
2022-08-18T20:39:35.135Z,5.57
2022-08-18T20:42:04.768Z,6.22
2022-08-18T20:44:38.351Z,6.35
2022-08-18T20:47:38.771Z,6.70
2022-08-18T20:50:09.333Z,6.80
2022-08-18T20:52:45.667Z,7.38
2022-08-18T20:55:30.781Z,6.80
2022-08-18T20:58:08.177Z,6.82
2022-08-18T21:00:41.535Z,7.15
2022-08-18T21:03:13.001Z,7.18
2022-08-18T21:05:43.757Z,6.20
2022-08-18T21:08:16.771Z,6.72
2022-08-18T21:10:57.933Z,7.35
2022-08-18T21:13:42.190Z,7.18
2022-08-18T21:16:11.529Z,6.82
2022-08-18T21:18:40.340Z,6.93
2022-08-18T21:21:19.083Z,6.55
2022-08-18T21:23:56.533Z,6.57
2022-08-18T21:26:24.048Z,6.35
2022-08-18T21:28:58.697Z,6.35
2022-08-18T21:31:44.971Z,6.88
2022-08-18T21:34:36.175Z,6.57
2022-08-18T21:37:08.047Z,6.60
2022-08-18T21:39:46.164Z,6.72
2022-08-18T21:42:19.204Z,6.90
2022-08-18T21:44:47.555Z,6.55
2022-08-18T21:47:14.443Z,6.90
2022-08-18T21:50:10.106Z,6.57
2022-08-18T21:52:52.164Z,6.80
2022-08-18T21:55:30.245Z,6.43
2022-08-18T21:58:16.893Z,6.50
2022-08-18T22:00:45.394Z,6.80
2022-08-18T22:03:24.925Z,6.30
2022-08-18T22:05:59.890Z,5.97
2022-08-18T22:08:49.826Z,7.18
2022-08-18T22:12:01.280Z,7.03
2022-08-18T22:14:54.275Z,6.72
2022-08-18T22:17:40.524Z,6.60
2022-08-18T22:20:35.223Z,6.45
2022-08-18T22:23:43.442Z,7.22
2022-08-18T22:26:28.322Z,6.47
2022-08-18T22:29:10.353Z,6.32
2022-08-18T22:31:43.589Z,6.18
2022-08-18T22:34:27.846Z,6.13
2022-08-18T22:37:23.375Z,6.90
2022-08-18T22:39:54.349Z,5.72
2022-08-18T22:42:24.518Z,6.00
2022-08-18T22:44:52.118Z,6.60
2022-08-18T22:47:19.789Z,6.80
2022-08-18T22:49:47.250Z,5.97
2022-08-18T22:52:33.151Z,6.40
2022-08-18T22:55:03.297Z,6.65
2022-08-18T22:57:38.502Z,6.18
2022-08-18T23:00:21.159Z,5.90
2022-08-18T23:02:49.937Z,6.72
2022-08-18T23:05:17.473Z,6.22
2022-08-18T23:07:46.087Z,6.45
2022-08-18T23:10:14.153Z,6.15
2022-08-18T23:12:43.204Z,6.47
2022-08-18T23:15:11.819Z,6.00
2022-08-18T23:17:40.719Z,6.35
2022-08-18T23:20:12.471Z,6.57
2022-08-18T23:22:45.771Z,6.22
2022-08-18T23:25:13.954Z,6.30
2022-08-18T23:27:43.071Z,6.53
2022-08-18T23:30:10.935Z,6.18
2022-08-18T23:32:37.934Z,6.03
2022-08-18T23:35:05.319Z,6.30
2022-08-18T23:37:32.392Z,6.72
2022-08-18T23:39:59.647Z,6.43
2022-08-18T23:42:26.690Z,6.38
2022-08-18T23:44:53.840Z,5.95
2022-08-18T23:47:21.168Z,6.05
2022-08-18T23:49:48.560Z,6.53
2022-08-18T23:52:15.704Z,5.90
2022-08-18T23:54:42.655Z,6.28
2022-08-18T23:57:09.593Z,6.00
2022-08-18T23:59:36.710Z,6.43
